Time;durP1;ratioP1;P1;durP2;ratioP2;P2;SDS_P1;SDS_P2;PMS_P1;PMS_P2;Temp;Humidity;BMP_temperature;BMP_pressure;BME280_temperature;BME280_humidity;BME280_pressure;Samples;Min_cycle;Max_cycle;Signal;HPM_P1;HPM_P2
2022/03/01 00:02:05;;;;;;;6.07;3.47;;;-2.30;71.10;-2.40;98155.00;;;;5109511;28;20463;-64
2022/03/01 00:04:54;;;;;;;5.43;3.87;;;-2.40;71.00;-2.20;98160.00;;;;5110303;28;20971;-65
2022/03/01 00:07:43;;;;;;;3.37;3.03;;;-2.40;71.20;-2.30;98172.00;;;;5105527;28;20421;-65
2022/03/01 00:10:32;;;;;;;5.47;2.80;;;-2.40;71.20;-2.30;98156.00;;;;5107062;28;20439;-65
2022/03/01 00:13:21;;;;;;;6.03;3.87;;;-2.40;71.40;-2.40;98155.00;;;;5092136;28;20434;-65
2022/03/01 00:16:11;;;;;;;7.20;3.43;;;-2.40;71.70;-2.30;98168.00;;;;5093523;28;20424;-65
2022/03/01 00:19:01;;;;;;;6.17;3.40;;;-2.40;71.80;-2.40;98171.00;;;;5098521;28;20420;-65
2022/03/01 00:21:49;;;;;;;6.70;3.93;;;-2.50;72.00;-2.30;98170.00;;;;5102082;28;20457;-65
2022/03/01 00:24:38;;;;;;;5.03;2.90;;;-2.50;72.40;-2.30;98169.00;;;;5101910;28;20430;-65
2022/03/01 00:27:27;;;;;;;5.13;3.90;;;-2.10;71.80;-2.50;98170.00;;;;5097352;28;20410;-65
2022/03/01 00:30:16;;;;;;;6.07;3.37;;;-3.70;71.60;-2.80;98159.00;;;;5102857;28;20421;-65
2022/03/01 00:33:09;;;;;;;3.77;3.37;;;-2.60;73.30;-2.90;98148.00;;;;5094158;28;20782;-65
2022/03/01 00:35:58;;;;;;;4.17;3.20;;;-2.60;73.80;-2.60;98159.00;;;;5090655;28;20863;-64
2022/03/01 00:38:46;;;;;;;3.40;3.10;;;-2.60;73.80;-2.40;98162.00;;;;5095472;28;20417;-64
2022/03/01 00:41:36;;;;;;;6.67;3.93;;;-2.60;74.40;-2.30;98161.00;;;;5102508;28;20983;-64
2022/03/01 00:44:25;;;;;;;4.77;3.47;;;-2.60;73.50;-2.50;98170.00;;;;5093199;28;20430;-64
2022/03/01 00:47:13;;;;;;;8.40;3.97;;;-2.50;73.70;-2.50;98165.00;;;;5088490;28;20422;-64
2022/03/01 00:50:04;;;;;;;4.67;3.87;;;-2.60;74.00;-2.60;98163.00;;;;5090382;28;20429;-64
2022/03/01 00:52:53;;;;;;;4.87;3.23;;;-2.60;74.40;-2.50;98170.00;;;;5095840;28;20844;-64
2022/03/01 00:55:42;;;;;;;6.63;3.53;;;-2.70;74.40;-2.60;98163.00;;;;5099389;28;20422;-64
2022/03/01 00:58:31;;;;;;;6.67;4.50;;;-2.60;75.00;-2.50;98164.00;;;;5099318;28;20417;-64
2022/03/01 01:01:20;;;;;;;5.43;3.10;;;-2.70;75.20;-2.50;98166.00;;;;5100316;28;20434;-63
2022/03/01 01:04:09;;;;;;;3.50;3.10;;;-2.70;74.90;-2.60;98156.00;;;;5095726;28;20425;-63
2022/03/01 01:06:59;;;;;;;5.20;4.20;;;-2.70;75.50;-2.90;98157.00;;;;5096127;28;20440;-64
2022/03/01 01:09:48;;;;;;;6.60;2.50;;;-2.80;75.90;-3.10;98154.00;;;;5094711;28;20426;-65
2022/03/01 01:12:37;;;;;;;3.57;3.27;;;-2.90;76.10;-2.90;98150.00;;;;5088377;28;20466;-64
2022/03/01 01:15:26;;;;;;;3.40;2.83;;;-2.90;76.40;-2.80;98156.00;;;;5093911;28;20433;-65
2022/03/01 01:18:15;;;;;;;5.20;3.63;;;-2.90;76.60;-3.00;98157.00;;;;5101961;28;20422;-63
2022/03/01 01:21:04;;;;;;;4.43;2.77;;;-2.90;76.90;-3.30;98154.00;;;;5102976;28;20457;-64
2022/03/01 01:23:54;;;;;;;5.00;3.27;;;-3.00;77.10;-3.00;98156.00;;;;5089356;28;20429;-64
2022/03/01 01:26:43;;;;;;;4.37;2.60;;;-3.00;76.90;-3.00;98147.00;;;;5089726;28;20417;-65
2022/03/01 01:29:31;;;;;;;3.27;2.87;;;-2.90;76.70;-2.60;98153.00;;;;5087466;28;20425;-64
2022/03/01 01:32:20;;;;;;;6.87;4.43;;;-2.90;76.60;-2.90;98147.00;;;;5097790;28;20468;-64
2022/03/01 01:35:11;;;;;;;3.60;3.30;;;-2.90;76.40;-3.00;98157.00;;;;5105279;28;20467;-64
2022/03/01 01:38:00;;;;;;;3.17;2.77;;;-2.90;76.90;-2.90;98155.00;;;;5100242;28;20420;-65
2022/03/01 01:40:50;;;;;;;6.40;4.13;;;-2.90;76.80;-2.50;98156.00;;;;5090506;28;20452;-65
2022/03/01 01:43:39;;;;;;;5.67;3.17;;;-2.80;76.30;-2.70;98143.00;;;;5090354;28;20426;-65
2022/03/01 01:46:28;;;;;;;5.93;2.80;;;-2.80;76.20;-2.70;98148.00;;;;5097357;28;20422;-65
2022/03/01 01:49:17;;;;;;;4.97;4.17;;;-2.70;76.30;-2.70;98139.00;;;;5103747;28;20412;-64
2022/03/01 01:52:07;;;;;;;5.10;3.07;;;-2.70;76.30;-2.70;98138.00;;;;5089784;28;20469;-64
2022/03/01 01:54:56;;;;;;;6.73;3.77;;;-2.70;76.20;-2.80;98133.00;;;;5098934;28;20848;-64
2022/03/01 01:57:47;;;;;;;3.50;3.13;;;-2.70;76.40;-3.10;98133.00;;;;5108471;28;20445;-65
2022/03/01 02:00:36;;;;;;;3.57;3.00;;;-2.80;76.60;-3.20;98130.00;;;;5110906;28;20454;-65
2022/03/01 02:03:24;;;;;;;4.17;3.30;;;-2.80;77.10;-3.10;98126.00;;;;5113572;28;20447;-65
2022/03/01 02:06:13;;;;;;;5.50;3.67;;;-2.90;77.40;-2.90;98117.00;;;;5113026;28;20791;-65
2022/03/01 02:09:02;;;;;;;3.67;3.30;;;-2.90;77.50;-2.80;98121.00;;;;5112952;28;20436;-65
2022/03/01 02:11:51;;;;;;;7.47;3.07;;;-2.90;77.00;-2.50;98113.00;;;;5113104;28;20499;-65
2022/03/01 02:14:41;;;;;;;9.37;3.10;;;-2.80;76.70;-2.60;98131.00;;;;5101249;28;20429;-64
2022/03/01 02:17:30;;;;;;;7.37;3.13;;;-2.80;76.60;-2.60;98117.00;;;;5091403;28;20414;-65
2022/03/01 02:20:23;;;;;;;3.70;3.13;;;-2.80;76.50;-2.50;98125.00;;;;5092644;28;20936;-64
2022/03/01 02:23:12;;;;;;;3.33;3.03;;;-2.70;76.50;-2.80;98117.00;;;;5092166;28;20430;-64
2022/03/01 02:26:01;;;;;;;6.53;4.03;;;-2.80;76.80;-2.70;98118.00;;;;5092325;28;20438;-64
2022/03/01 02:28:51;;;;;;;5.97;3.90;;;-2.80;77.10;-2.80;98117.00;;;;5092447;28;20505;-64
2022/03/01 02:31:40;;;;;;;3.23;2.93;;;-2.70;77.10;-2.90;98119.00;;;;5096353;28;20452;-64
2022/03/01 02:34:29;;;;;;;3.13;2.83;;;-3.00;77.00;-3.10;98114.00;;;;5098184;28;20460;-64
2022/03/01 02:37:19;;;;;;;4.53;3.10;;;-3.10;77.60;-3.10;98125.00;;;;5092901;28;20425;-64
2022/03/01 02:40:09;;;;;;;5.60;3.40;;;-3.10;78.20;-3.10;98115.00;;;;5108744;28;20455;-64
2022/03/01 02:42:58;;;;;;;6.77;3.10;;;-3.20;78.50;-3.10;98113.00;;;;5101676;28;20421;-64
2022/03/01 02:45:47;;;;;;;5.17;1.90;;;-3.20;78.70;-3.70;98103.00;;;;5092508;28;20429;-64
2022/03/01 02:48:35;;;;;;;3.83;3.23;;;-3.30;79.60;-3.40;98105.00;;;;5101365;28;20688;-64
2022/03/01 02:51:24;;;;;;;3.97;3.23;;;-3.40;79.60;-3.70;98103.00;;;;5111729;28;20993;-64
2022/03/01 02:54:14;;;;;;;7.10;4.40;;;-3.50;80.20;-3.30;98098.00;;;;5112020;28;20468;-65
2022/03/01 02:57:04;;;;;;;5.70;3.37;;;-3.50;80.70;-3.30;98096.00;;;;5112746;28;20466;-65
2022/03/01 02:59:53;;;;;;;4.47;3.10;;;-3.50;80.80;-3.40;98103.00;;;;5100796;28;20436;-64
2022/03/01 03:02:42;;;;;;;5.33;3.20;;;-3.50;80.90;-3.50;98094.00;;;;5105076;28;20442;-64
2022/03/01 03:05:31;;;;;;;6.50;3.80;;;-3.50;80.90;-3.50;98102.00;;;;5091265;28;20421;-65
2022/03/01 03:08:20;;;;;;;5.27;3.27;;;-3.60;81.40;-3.50;98107.00;;;;5090331;28;20433;-64
2022/03/01 03:11:10;;;;;;;5.93;4.33;;;-3.60;81.20;-3.50;98096.00;;;;5101339;28;20445;-65
2022/03/01 03:13:59;;;;;;;4.30;3.43;;;-3.70;81.80;-3.60;98096.00;;;;5111552;28;20460;-64
2022/03/01 03:16:48;;;;;;;6.10;3.30;;;-3.70;81.80;-3.60;98094.00;;;;5111746;28;20416;-64
2022/03/01 03:19:37;;;;;;;6.00;4.37;;;-3.70;82.30;-3.50;98110.00;;;;5111917;28;20439;-64
2022/03/01 03:22:25;;;;;;;5.67;3.33;;;-3.70;82.40;-3.60;98098.00;;;;5111875;28;20460;-64
2022/03/01 03:25:15;;;;;;;3.73;2.97;;;-3.70;83.20;-3.60;98101.00;;;;5111462;28;21231;-64
2022/03/01 03:28:05;;;;;;;3.53;3.03;;;-3.70;82.90;-3.70;98099.00;;;;5110304;28;20421;-65
2022/03/01 03:30:54;;;;;;;3.67;3.40;;;-3.80;82.60;-3.60;98080.00;;;;5111111;28;20445;-65
2022/03/01 03:33:43;;;;;;;4.33;3.23;;;-3.80;83.30;-3.90;98079.00;;;;5100557;28;20470;-65
2022/03/01 03:36:34;;;;;;;2.17;1.97;;;-3.80;82.80;-4.20;98095.00;;;;5112069;28;20428;-64
2022/03/01 03:39:22;;;;;;;2.47;2.27;;;-3.90;84.10;-4.60;98080.00;;;;5100759;28;20422;-64
2022/03/01 03:42:12;;;;;;;7.53;4.50;;;-4.00;85.30;-4.60;98085.00;;;;5099212;28;20437;-64
2022/03/01 03:45:02;;;;;;;2.50;2.30;;;-4.10;86.00;-4.90;98071.00;;;;5097788;28;20428;-64
2022/03/01 03:47:51;;;;;;;3.20;2.90;;;-4.20;86.90;-5.00;98076.00;;;;5110693;28;20440;-64
2022/03/01 03:50:40;;;;;;;2.43;2.23;;;-4.40;87.70;-4.90;98075.00;;;;5110994;28;20939;-64
2022/03/01 03:53:28;;;;;;;3.00;2.70;;;-4.40;88.70;-4.70;98078.00;;;;5111250;28;20864;-64
2022/03/01 03:56:17;;;;;;;3.43;3.03;;;-4.50;89.30;-4.50;98077.00;;;;5110757;28;20421;-64
2022/03/01 03:59:07;;;;;;;3.83;2.47;;;-4.40;89.30;-4.30;98078.00;;;;5110288;28;20440;-64
2022/03/01 04:01:57;;;;;;;4.23;3.37;;;-4.10;89.40;-4.20;98076.00;;;;5110372;28;20445;-64
2022/03/01 04:04:46;;;;;;;3.03;2.20;;;-4.30;89.00;-4.20;98084.00;;;;5111229;28;20944;-64
2022/03/01 04:07:35;;;;;;;3.97;2.87;;;-4.30;88.70;-4.30;98079.00;;;;5110233;28;20409;-64
2022/03/01 04:10:24;;;;;;;3.57;2.77;;;-4.30;88.70;-4.20;98075.00;;;;5110467;28;20417;-65
2022/03/01 04:13:13;;;;;;;4.60;3.83;;;-4.10;88.70;-4.30;98065.00;;;;5110809;28;20990;-64
2022/03/01 04:16:02;;;;;;;3.70;3.03;;;-4.20;88.40;-4.80;98071.00;;;;5111541;28;20424;-64
2022/03/01 04:18:52;;;;;;;5.97;4.13;;;-4.40;89.10;-4.70;98073.00;;;;5110601;28;20442;-64
2022/03/01 04:21:41;;;;;;;8.87;5.10;;;-4.40;89.90;-4.60;98070.00;;;;5109650;28;20445;-64
2022/03/01 04:24:30;;;;;;;9.63;5.10;;;-4.50;90.30;-4.70;98073.00;;;;5110618;28;20452;-64
2022/03/01 04:27:19;;;;;;;8.70;4.40;;;-4.60;90.50;-4.90;98056.00;;;;5111079;28;20409;-65
2022/03/01 04:30:11;;;;;;;5.13;3.93;;;-4.60;90.60;-5.10;98062.00;;;;5110353;28;20420;-65
2022/03/01 04:33:00;;;;;;;3.53;2.60;;;-4.70;91.00;-5.60;98061.00;;;;5094865;28;21001;-64
2022/03/01 04:35:50;;;;;;;8.03;3.73;;;-4.80;91.50;-5.70;98051.00;;;;5110670;28;20417;-65
2022/03/01 04:38:39;;;;;;;3.60;3.30;;;-4.90;92.20;-5.50;98061.00;;;;5106483;28;20451;-65
2022/03/01 04:41:28;;;;;;;5.13;4.28;;;-5.00;92.60;-5.50;98061.00;;;;5104107;28;20489;-65
2022/03/01 04:44:17;;;;;;;5.13;3.47;;;-3.40;93.50;-5.20;98061.00;;;;5096514;28;20205;-65
2022/03/01 04:47:06;;;;;;;4.67;3.77;;;-5.10;93.20;-4.90;98048.00;;;;5101286;28;20504;-65
2022/03/01 04:49:55;;;;;;;3.73;2.77;;;-5.00;93.30;-5.00;98039.00;;;;5090905;28;20421;-65
2022/03/01 04:52:45;;;;;;;11.17;3.60;;;-5.00;93.30;-4.70;98056.00;;;;5097014;28;20448;-65
2022/03/01 04:55:35;;;;;;;2.53;2.40;;;-4.90;93.20;-4.60;98050.00;;;;5107193;28;20439;-65
2022/03/01 04:58:24;;;;;;;2.50;2.30;;;-4.90;93.30;-4.90;98041.00;;;;5104735;28;20800;-65
2022/03/01 05:01:12;;;;;;;7.97;3.73;;;-4.80;93.20;-5.10;98035.00;;;;5096292;28;20449;-65
2022/03/01 05:04:01;;;;;;;3.63;3.30;;;-4.80;93.00;-5.30;98031.00;;;;5105421;28;20792;-65
2022/03/01 05:06:52;;;;;;;11.60;3.93;;;-4.90;93.40;-5.10;98025.00;;;;5099865;28;20960;-65
2022/03/01 05:09:42;;;;;;;2.70;2.50;;;-5.00;93.60;-5.10;98026.00;;;;5096646;28;20433;-65
2022/03/01 05:12:31;;;;;;;3.60;2.90;;;-5.00;93.80;-5.00;98025.00;;;;5102682;28;20969;-66
2022/03/01 05:15:21;;;;;;;2.97;2.70;;;-5.00;94.00;-5.10;98036.00;;;;5095925;28;20842;-65
2022/03/01 05:18:09;;;;;;;3.65;2.95;;;-5.00;94.00;-5.10;98024.00;;;;5103482;28;20956;-65
2022/03/01 05:20:58;;;;;;;3.93;2.73;;;-5.00;94.10;-5.30;98023.00;;;;5101982;28;20230;-65
2022/03/01 05:23:47;;;;;;;4.37;3.73;;;-5.00;94.20;-5.50;98024.00;;;;5098584;28;20424;-65
2022/03/01 05:26:38;;;;;;;5.83;2.93;;;-5.10;94.40;-5.50;98017.00;;;;5102877;28;21015;-65
2022/03/01 05:29:26;;;;;;;4.13;2.57;;;-5.20;94.60;-5.80;98012.00;;;;5096057;28;20825;-66
2022/03/01 05:32:15;;;;;;;3.97;3.67;;;-5.20;95.20;-5.50;98017.00;;;;5096839;28;20449;-65
2022/03/01 05:35:06;;;;;;;4.23;3.83;;;-5.30;95.40;-5.00;98023.00;;;;5098121;28;20989;-65
2022/03/01 05:37:56;;;;;;;6.13;4.10;;;-5.20;95.60;-4.90;98013.00;;;;5097456;28;20515;-65
2022/03/01 05:40:46;;;;;;;4.90;3.30;;;-5.10;95.30;-5.10;98017.00;;;;5101023;28;20448;-65
2022/03/01 05:43:37;;;;;;;3.87;2.03;;;-5.10;95.30;-5.50;98016.00;;;;5096834;28;20418;-64
2022/03/01 05:46:26;;;;;;;2.67;2.47;;;-5.10;95.50;-5.50;98035.00;;;;5108313;28;20993;-65
2022/03/01 05:49:15;;;;;;;5.38;3.45;;;-5.10;95.90;-6.00;98023.00;;;;5106531;28;20202;-65
2022/03/01 05:52:06;;;;;;;1.52;1.45;;;-5.20;96.00;-5.90;98028.00;;;;5091932;28;20218;-65
2022/03/01 05:54:54;;;;;;;4.83;3.00;;;-5.30;96.50;-5.80;98022.00;;;;5097665;28;20221;-65
2022/03/01 05:57:43;;;;;;;5.10;3.73;;;-5.30;96.80;-5.20;98030.00;;;;5108588;28;20430;-65
2022/03/01 06:00:34;;;;;;;5.97;3.28;;;-5.30;97.20;-5.30;98028.00;;;;5102239;28;20421;-65
2022/03/01 06:03:22;;;;;;;5.07;4.43;;;-5.30;97.10;-5.40;98038.00;;;;5093035;28;20654;-65
2022/03/01 06:06:11;;;;;;;4.82;3.13;;;-5.30;97.30;-5.30;98033.00;;;;5096870;28;20829;-65
2022/03/01 06:09:00;;;;;;;2.60;2.40;;;-5.30;97.30;-5.00;98035.00;;;;5100128;28;20198;-64
2022/03/01 06:11:48;;;;;;;5.93;2.93;;;-5.10;97.10;-4.50;98045.00;;;;5090674;28;20437;-64
2022/03/01 06:14:37;;;;;;;5.55;4.28;;;-5.00;96.90;-5.10;98035.00;;;;5088263;28;20454;-64
2022/03/01 06:17:29;;;;;;;6.70;5.13;;;-4.90;96.70;-4.90;98036.00;;;;5096599;28;20226;-64
2022/03/01 06:20:18;;;;;;;4.37;3.13;;;-4.90;96.80;-5.00;98046.00;;;;5099465;28;20432;-65
2022/03/01 06:23:07;;;;;;;4.77;4.30;;;-4.80;96.90;-4.90;98041.00;;;;5107263;28;20432;-65
2022/03/01 06:25:56;;;;;;;8.23;3.87;;;-4.80;96.70;-4.90;98036.00;;;;5099861;28;20447;-66
2022/03/01 06:28:45;;;;;;;6.40;4.33;;;-4.80;96.80;-4.90;98038.00;;;;5097102;28;20426;-65
2022/03/01 06:31:33;;;;;;;3.20;2.53;;;-4.80;97.00;-5.40;98029.00;;;;5094084;28;20452;-64
2022/03/01 06:34:23;;;;;;;3.83;2.27;;;-4.80;97.30;-5.60;98033.00;;;;5105203;28;20499;-66
2022/03/01 06:37:13;;;;;;;6.50;2.67;;;-4.90;97.50;-5.70;98029.00;;;;5097161;28;20410;-65
2022/03/01 06:40:02;;;;;;;4.20;2.78;;;-5.00;97.70;-5.80;98025.00;;;;5097698;28;20428;-66
2022/03/01 06:42:51;;;;;;;2.72;2.38;;;-5.10;98.20;-5.30;98035.00;;;;5101265;28;20203;-65
2022/03/01 06:45:39;;;;;;;3.97;2.47;;;-5.10;98.80;-5.20;98050.00;;;;5095917;28;20195;-65
2022/03/01 06:48:28;;;;;;;4.23;3.93;;;-4.90;99.10;-4.90;98043.00;;;;5101003;28;20968;-65
2022/03/01 06:51:18;;;;;;;3.73;3.43;;;-4.80;98.80;-4.70;98045.00;;;;5112077;28;20444;-65
2022/03/01 06:54:07;;;;;;;4.32;3.78;;;-4.70;98.50;-4.80;98034.00;;;;5111790;28;20436;-65
2022/03/01 06:56:56;;;;;;;6.00;3.03;;;-4.60;98.00;-4.60;98039.00;;;;5106007;28;20202;-65
2022/03/01 06:59:45;;;;;;;3.30;3.00;;;-4.50;98.00;-4.40;98042.00;;;;5091369;28;20422;-65
2022/03/01 07:02:38;;;;;;;4.80;4.40;;;-4.40;97.70;-4.00;98046.00;;;;5111279;28;20803;-65
2022/03/01 07:05:28;;;;;;;5.50;3.33;;;-4.20;97.30;-3.80;98048.00;;;;5110362;28;20452;-65
2022/03/01 07:08:20;;;;;;;4.40;3.97;;;-4.10;97.00;-3.90;98051.00;;;;5103701;28;20436;-65
2022/03/01 07:11:09;;;;;;;5.00;3.87;;;-3.90;96.60;-3.50;98055.00;;;;5101370;28;20440;-65
2022/03/01 07:13:57;;;;;;;8.93;4.70;;;-3.80;96.30;-3.40;98055.00;;;;5102296;28;20441;-65
2022/03/01 07:16:46;;;;;;;5.37;4.07;;;-3.60;96.20;-3.20;98052.00;;;;5091249;28;20436;-65
2022/03/01 07:19:35;;;;;;;6.00;4.20;;;-3.50;96.00;-3.20;98058.00;;;;5091919;28;20425;-65
2022/03/01 07:22:24;;;;;;;4.57;2.93;;;-3.40;95.50;-3.30;98051.00;;;;5098827;28;20433;-65
2022/03/01 07:25:17;;;;;;;5.70;4.13;;;-3.30;95.20;-2.80;98053.00;;;;5112342;28;20425;-66
2022/03/01 07:28:06;;;;;;;6.57;4.70;;;-3.20;95.10;-2.70;98065.00;;;;5106734;28;20413;-65
2022/03/01 07:30:55;;;;;;;9.27;5.80;;;-3.00;94.80;-2.60;98062.00;;;;5098606;28;20451;-65
2022/03/01 07:33:44;;;;;;;5.63;3.60;;;-2.90;94.70;-2.50;98056.00;;;;5108323;28;20943;-65
2022/03/01 07:36:33;;;;;;;6.20;3.43;;;-2.80;94.00;-2.70;98058.00;;;;5098382;28;20459;-65
2022/03/01 07:39:21;;;;;;;7.27;4.53;;;-2.70;93.80;-2.30;98049.00;;;;5101929;28;20425;-65
2022/03/01 07:42:12;;;;;;;6.90;5.07;;;-2.60;93.00;-2.20;98051.00;;;;5098357;28;20450;-66
2022/03/01 07:45:00;;;;;;;9.17;4.07;;;-2.40;92.90;-1.80;98060.00;;;;5098853;28;20421;-65
2022/03/01 07:47:49;;;;;;;7.97;4.90;;;-2.30;92.60;-1.50;98057.00;;;;5096420;28;20441;-66
2022/03/01 07:50:38;;;;;;;16.57;8.50;;;-2.10;92.30;-1.50;98053.00;;;;5091073;28;20433;-65
2022/03/01 07:53:27;;;;;;;22.07;11.40;;;-1.90;92.10;-1.70;98049.00;;;;5104307;28;20417;-66
2022/03/01 07:56:15;;;;;;;14.67;8.77;;;-1.70;91.60;-1.60;98047.00;;;;5103861;28;20464;-66
2022/03/01 07:59:05;;;;;;;8.10;4.60;;;-1.60;90.90;-1.20;98054.00;;;;5103307;28;20796;-66
2022/03/01 08:01:55;;;;;;;4.40;2.60;;;-1.50;90.60;-1.00;98055.00;;;;5106589;28;20441;-66
2022/03/01 08:04:44;;;;;;;8.47;5.07;;;-1.30;90.50;-1.00;98061.00;;;;5098780;28;20522;-66
2022/03/01 08:07:33;;;;;;;6.13;3.90;;;-1.10;89.00;-0.80;98052.00;;;;5110896;28;20804;-67
2022/03/01 08:10:21;;;;;;;4.53;4.07;;;-1.00;87.90;-0.60;98046.00;;;;5109527;28;20424;-66
2022/03/01 08:13:11;;;;;;;6.77;3.40;;;-0.80;87.10;-0.60;98044.00;;;;5094708;28;20490;-66
2022/03/01 08:16:02;;;;;;;3.00;2.77;;;-0.70;85.20;-0.60;98035.00;;;;5091342;28;20468;-66
2022/03/01 08:18:51;;;;;;;3.70;3.33;;;-0.50;84.30;-0.70;98036.00;;;;5101606;28;20507;-66
2022/03/01 08:21:40;;;;;;;8.80;3.90;;;-0.40;83.30;-0.40;98045.00;;;;5099325;28;20451;-66
2022/03/01 08:24:28;;;;;;;6.00;3.70;;;-0.40;83.00;0.10;98055.00;;;;5102888;28;20417;-66
2022/03/01 08:27:18;;;;;;;6.07;4.37;;;-0.20;81.80;0.50;98048.00;;;;5104500;28;20803;-66
2022/03/01 08:30:08;;;;;;;6.20;3.93;;;0.00;82.20;1.80;98046.00;;;;5105589;28;20653;-66
2022/03/01 08:32:58;;;;;;;6.83;3.53;;;0.30;81.30;1.80;98052.00;;;;5096622;28;20422;-66
2022/03/01 08:35:47;;;;;;;4.50;3.37;;;0.80;77.40;2.20;98052.00;;;;5089920;28;20469;-65
2022/03/01 08:38:37;;;;;;;5.80;4.43;;;1.10;75.30;2.80;98056.00;;;;5094926;28;20421;-65
2022/03/01 08:41:28;;;;;;;9.53;4.37;;;1.40;75.50;2.60;98046.00;;;;5101944;28;21231;-66
2022/03/01 08:44:16;;;;;;;5.67;4.50;;;1.60;72.60;2.70;98041.00;;;;5106018;28;20775;-65
2022/03/01 08:47:07;;;;;;;7.33;4.63;;;1.80;72.20;3.20;98046.00;;;;5100615;28;20425;-65
2022/03/01 08:49:57;;;;;;;5.83;3.97;;;2.00;72.80;2.70;98050.00;;;;5089595;28;20444;-63
2022/03/01 08:52:49;;;;;;;7.47;3.83;;;2.10;69.90;3.00;98051.00;;;;5108654;28;20428;-65
2022/03/01 08:55:38;;;;;;;8.77;4.80;;;2.20;68.80;3.00;98050.00;;;;5100361;28;20477;-65
2022/03/01 08:58:27;;;;;;;7.13;4.53;;;2.30;68.40;3.10;98050.00;;;;5089569;28;20428;-65
2022/03/01 09:01:16;;;;;;;5.97;4.03;;;2.40;68.10;3.60;98051.00;;;;5089917;28;20452;-65
2022/03/01 09:04:05;;;;;;;10.47;3.80;;;2.50;67.60;3.60;98043.00;;;;5102664;28;20427;-65
2022/03/01 09:06:56;;;;;;;6.40;4.03;;;2.60;66.70;4.00;98047.00;;;;5105518;28;20447;-65
2022/03/01 09:09:47;;;;;;;6.43;3.87;;;2.80;67.10;4.50;98050.00;;;;5099208;28;20813;-66
2022/03/01 09:12:35;;;;;;;8.77;4.63;;;3.00;67.20;4.60;98056.00;;;;5096143;28;20452;-65
2022/03/01 09:15:30;;;;;;;5.30;3.90;;;3.30;66.40;4.90;98049.00;;;;5109518;28;20476;-65
2022/03/01 09:18:21;;;;;;;6.80;4.20;;;3.50;66.10;4.90;98044.00;;;;5109893;28;20428;-65
2022/03/01 09:21:10;;;;;;;6.53;3.77;;;3.60;64.00;5.30;98042.00;;;;5109049;28;20448;-66
2022/03/01 09:24:01;;;;;;;5.80;3.60;;;3.80;64.00;5.40;98042.00;;;;5107918;28;20804;-65
2022/03/01 09:26:50;;;;;;;4.27;3.57;;;4.10;63.20;5.40;98036.00;;;;5100986;28;20433;-66
2022/03/01 09:29:44;;;;;;;6.10;3.13;;;4.30;61.20;5.70;98040.00;;;;5089091;28;20207;-66
2022/03/01 09:32:33;;;;;;;4.33;2.83;;;4.30;61.40;5.60;98036.00;;;;5100235;28;20445;-66
2022/03/01 09:35:21;;;;;;;4.80;3.83;;;4.50;59.40;5.60;98030.00;;;;5096794;28;20206;-66
2022/03/01 09:38:10;;;;;;;5.83;3.57;;;4.60;59.10;5.60;98036.00;;;;5103309;28;20587;-66
2022/03/01 09:41:03;;;;;;;8.83;4.10;;;4.70;58.30;5.50;98034.00;;;;5103030;28;20716;-66
2022/03/01 09:43:54;;;;;;;7.63;4.00;;;4.80;57.80;6.00;98035.00;;;;5097613;28;20701;-66
2022/03/01 09:46:43;;;;;;;4.37;2.83;;;4.90;58.40;6.10;98034.00;;;;5104809;28;20588;-66
2022/03/01 09:49:32;;;;;;;5.67;3.30;;;4.90;57.50;4.70;98011.00;;;;5103544;28;20200;-66
2022/03/01 09:52:21;;;;;;;6.90;3.70;;;4.90;55.50;4.70;97994.00;;;;5100479;28;20215;-66
2022/03/01 09:55:11;;;;;;;6.67;3.50;;;4.70;55.70;4.30;97992.00;;;;5103067;28;20207;-65
2022/03/01 09:58:01;;;;;;;5.07;3.47;;;4.70;55.50;4.30;97986.00;;;;5088855;28;20195;-66
2022/03/01 10:00:50;;;;;;;5.07;3.23;;;4.50;55.40;4.80;97986.00;;;;5096244;28;20712;-66
2022/03/01 10:03:39;;;;;;;5.67;3.33;;;4.40;55.80;4.60;97985.00;;;;5098577;28;20574;-66
2022/03/01 10:06:34;;;;;;;4.20;3.57;;;4.50;55.70;4.60;97981.00;;;;5097000;28;20207;-66
2022/03/01 10:09:26;;;;;;;3.47;3.07;;;4.50;55.30;5.20;97975.00;;;;5101171;28;20728;-66
2022/03/01 10:12:15;;;;;;;3.63;3.27;;;4.70;54.90;5.00;97973.00;;;;5107866;28;20269;-66
2022/03/01 10:15:10;;;;;;;5.07;2.83;;;4.70;54.20;5.10;97978.00;;;;5108503;28;20199;-66
2022/03/01 10:17:59;;;;;;;5.27;2.60;;;4.60;53.70;5.00;97964.00;;;;5109057;28;20429;-66
2022/03/01 10:20:49;;;;;;;4.23;2.57;;;4.80;54.30;5.80;97966.00;;;;5109590;28;20221;-66
2022/03/01 10:23:38;;;;;;;5.20;2.70;;;5.00;53.50;6.00;97962.00;;;;5111972;28;20611;-67
2022/03/01 10:26:30;;;;;;;5.00;3.03;;;5.20;53.90;7.10;97962.00;;;;5117225;22;20223;-85
2022/03/01 10:29:18;;;;;;;5.60;3.27;;;5.40;53.10;7.20;97961.00;;;;5125785;27;20373;-85
2022/03/01 10:32:13;;;;;;;4.70;2.93;;;5.70;53.30;8.00;97960.00;;;;5106595;27;20219;-85
2022/03/01 10:35:07;;;;;;;6.47;2.90;;;6.10;54.10;8.00;97957.00;;;;5111264;28;20232;-85
2022/03/01 10:37:55;;;;;;;3.17;2.13;;;6.40;51.50;8.50;97942.00;;;;5113075;28;20234;-85
2022/03/01 10:40:44;;;;;;;5.73;2.40;;;6.80;51.80;8.90;97952.00;;;;5091197;28;20227;-85
2022/03/01 10:43:33;;;;;;;3.30;2.70;;;7.10;50.60;9.30;97932.00;;;;5093132;28;20215;-85
2022/03/01 10:46:22;;;;;;;3.00;2.20;;;7.50;50.80;9.00;97938.00;;;;5092442;28;20605;-85
2022/03/01 10:49:15;;;;;;;2.83;2.33;;;7.70;49.00;9.70;97927.00;;;;5088517;28;20221;-85
2022/03/01 10:52:09;;;;;;;2.13;1.67;;;8.10;48.60;9.80;97928.00;;;;5085728;28;20306;-85
2022/03/01 10:54:58;;;;;;;2.00;1.53;;;8.50;47.80;9.70;97920.00;;;;5089357;28;20221;-85
2022/03/01 10:58:05;;;;;;;2.40;2.20;;;8.80;46.00;11.00;97923.00;;;;5090529;28;20230;-87
2022/03/01 11:00:54;;;;;;;2.43;2.23;;;9.30;47.20;11.50;97916.00;;;;5090107;28;20226;-85
2022/03/01 11:03:43;;;;;;;3.20;2.33;;;9.80;45.90;11.80;97911.00;;;;5090552;28;20196;-86
2022/03/01 11:06:33;;;;;;;2.30;1.80;;;10.20;45.60;12.40;97907.00;;;;5091556;28;20707;-85
2022/03/01 11:09:27;;;;;;;2.70;1.73;;;10.60;45.30;10.70;97903.00;;;;5088528;28;20570;-85
2022/03/01 11:12:21;;;;;;;1.93;1.80;;;11.00;42.50;12.10;97910.00;;;;5080781;28;20219;-86
2022/03/01 11:15:21;;;;;;;2.43;1.80;;;11.20;42.60;10.00;97893.00;;;;5084151;28;20218;-86
2022/03/01 11:18:25;;;;;;;3.40;2.10;;;11.00;40.50;11.20;97885.00;;;;5089777;28;20590;-85
2022/03/01 11:21:16;;;;;;;2.60;2.17;;;11.00;42.50;11.60;97883.00;;;;5126201;22;20727;-68
2022/03/01 11:24:07;;;;;;;4.40;2.27;;;11.00;42.40;11.80;97884.00;;;;5106373;27;20235;-69
2022/03/01 11:27:06;;;;;;;3.00;2.30;;;11.00;43.00;13.20;97881.00;;;;5092154;28;20219;-68
2022/03/01 11:30:08;;;;;;;3.53;2.30;;;11.30;43.30;14.40;97882.00;;;;5112077;22;20227;-82
2022/03/01 11:32:58;;;;;;;3.03;2.30;;;11.90;44.20;14.30;97876.00;;;;5091037;28;20306;-83
2022/03/01 11:35:54;;;;;;;3.17;2.30;;;12.50;42.50;11.30;97853.00;;;;5089420;28;20222;-83
2022/03/01 11:38:44;;;;;;;4.10;3.10;;;12.60;39.60;11.50;97846.00;;;;5087177;28;20211;-83
2022/03/01 11:41:43;;;;;;;3.90;2.20;;;12.50;40.00;11.60;97848.00;;;;5087121;28;20199;-82
2022/03/01 11:44:35;;;;;;;2.23;1.83;;;12.20;39.40;13.60;97844.00;;;;5083182;28;20678;-82
2022/03/01 11:47:27;;;;;;;3.77;2.57;;;12.30;40.50;13.50;97841.00;;;;5093793;28;20234;-82
2022/03/01 11:50:36;;;;;;;2.87;2.40;;;12.50;39.70;14.50;97849.00;;;;5082987;28;20231;-82
2022/03/01 11:53:27;;;;;;;3.00;2.00;;;12.70;40.40;15.10;97834.00;;;;5087342;28;20222;-83
2022/03/01 11:56:18;;;;;;;3.30;2.53;;;13.10;40.80;14.80;97825.00;;;;5094610;28;20677;-83
2022/03/01 11:59:10;;;;;;;2.33;2.10;;;13.40;39.90;13.70;97814.00;;;;5090695;28;20211;-83
2022/03/01 12:02:00;;;;;;;3.77;2.33;;;13.70;38.10;14.40;97817.00;;;;5072970;28;20277;-83
2022/03/01 12:04:51;;;;;;;2.63;1.57;;;13.60;38.30;15.20;97816.00;;;;5074504;28;20689;-82
2022/03/01 12:07:40;;;;;;;2.97;2.50;;;13.70;39.30;15.50;97812.00;;;;5080923;28;20352;-83
2022/03/01 12:10:35;;;;;;;2.27;2.07;;;13.90;39.00;16.20;97814.00;;;;5089749;28;20195;-82
2022/03/01 12:13:35;;;;;;;2.40;2.20;;;14.30;38.90;17.10;97807.00;;;;5087424;28;20256;-83
2022/03/01 12:16:30;;;;;;;3.20;2.30;;;14.80;38.90;16.20;97798.00;;;;5093969;28;20685;-84
2022/03/01 12:19:22;;;;;;;3.53;2.63;;;15.20;36.90;17.10;97796.00;;;;5089724;28;20246;-84
2022/03/01 12:22:16;;;;;;;1.77;1.50;;;15.60;37.40;17.20;97795.00;;;;5086494;28;20483;-82
2022/03/01 12:25:06;;;;;;;2.97;1.73;;;15.90;37.00;17.00;97798.00;;;;5083757;28;20209;-84
2022/03/01 12:27:56;;;;;;;3.80;1.70;;;16.20;36.70;18.50;97794.00;;;;5083196;28;20658;-82
2022/03/01 12:30:45;;;;;;;2.60;1.90;;;16.50;37.00;18.80;97792.00;;;;5087303;28;20697;-82
2022/03/01 12:33:36;;;;;;;3.23;2.27;;;17.00;36.40;18.50;97792.00;;;;5094806;28;20231;-82
2022/03/01 12:36:36;;;;;;;3.63;1.77;;;17.40;35.50;19.10;97784.00;;;;5089610;28;20200;-81
2022/03/01 12:39:27;;;;;;;4.30;2.37;;;17.90;34.80;19.20;97781.00;;;;5082984;28;20689;-81